sensor_id;sensor_type;location;lat;lon;timestamp;P1;durP1;ratioP1;P2;durP2;ratioP2
1747;SDS011;871;47.034;15.394;2023-09-30T00:01:02;37.67;;;1.70;;
1747;SDS011;871;47.034;15.394;2023-09-30T00:03:28;37.27;;;1.67;;
1747;SDS011;871;47.034;15.394;2023-09-30T00:05:54;37.30;;;1.60;;
1747;SDS011;871;47.034;15.394;2023-09-30T00:08:20;37.33;;;1.40;;
1747;SDS011;871;47.034;15.394;2023-09-30T00:10:47;38.77;;;2.13;;
1747;SDS011;871;47.034;15.394;2023-09-30T00:13:13;37.87;;;1.67;;
1747;SDS011;871;47.034;15.394;2023-09-30T00:15:39;38.27;;;1.80;;
1747;SDS011;871;47.034;15.394;2023-09-30T00:18:06;38.13;;;1.60;;
1747;SDS011;871;47.034;15.394;2023-09-30T00:20:32;37.47;;;1.37;;
1747;SDS011;871;47.034;15.394;2023-09-30T00:22:58;37.80;;;1.57;;
1747;SDS011;871;47.034;15.394;2023-09-30T00:25:24;37.77;;;1.37;;
1747;SDS011;871;47.034;15.394;2023-09-30T00:27:50;38.17;;;1.47;;
1747;SDS011;871;47.034;15.394;2023-09-30T00:30:17;38.03;;;1.90;;
1747;SDS011;871;47.034;15.394;2023-09-30T00:32:43;37.43;;;1.43;;
1747;SDS011;871;47.034;15.394;2023-09-30T00:35:09;37.07;;;1.40;;
1747;SDS011;871;47.034;15.394;2023-09-30T00:37:39;37.07;;;1.70;;
1747;SDS011;871;47.034;15.394;2023-09-30T00:40:09;36.83;;;1.60;;
1747;SDS011;871;47.034;15.394;2023-09-30T00:42:38;37.30;;;2.20;;
1747;SDS011;871;47.034;15.394;2023-09-30T00:45:05;36.93;;;2.53;;
1747;SDS011;871;47.034;15.394;2023-09-30T00:47:31;38.57;;;2.47;;
1747;SDS011;871;47.034;15.394;2023-09-30T00:49:58;37.77;;;1.73;;
1747;SDS011;871;47.034;15.394;2023-09-30T00:52:24;37.17;;;1.50;;
1747;SDS011;871;47.034;15.394;2023-09-30T00:54:50;36.60;;;2.13;;
1747;SDS011;871;47.034;15.394;2023-09-30T00:57:17;37.13;;;1.73;;
1747;SDS011;871;47.034;15.394;2023-09-30T00:59:45;37.20;;;1.80;;
1747;SDS011;871;47.034;15.394;2023-09-30T01:02:12;37.97;;;1.70;;
1747;SDS011;871;47.034;15.394;2023-09-30T01:04:38;38.03;;;2.17;;
1747;SDS011;871;47.034;15.394;2023-09-30T01:07:05;38.47;;;1.70;;
1747;SDS011;871;47.034;15.394;2023-09-30T01:09:31;38.17;;;1.60;;
1747;SDS011;871;47.034;15.394;2023-09-30T01:11:58;37.87;;;1.50;;
1747;SDS011;871;47.034;15.394;2023-09-30T01:14:28;38.43;;;1.83;;
1747;SDS011;871;47.034;15.394;2023-09-30T01:16:55;37.97;;;1.80;;
1747;SDS011;871;47.034;15.394;2023-09-30T01:19:21;38.27;;;2.53;;
1747;SDS011;871;47.034;15.394;2023-09-30T01:21:52;37.17;;;1.80;;
1747;SDS011;871;47.034;15.394;2023-09-30T01:24:20;36.27;;;1.80;;
1747;SDS011;871;47.034;15.394;2023-09-30T01:26:46;35.80;;;1.90;;
1747;SDS011;871;47.034;15.394;2023-09-30T01:29:12;35.80;;;1.80;;
1747;SDS011;871;47.034;15.394;2023-09-30T01:31:38;35.77;;;2.17;;
1747;SDS011;871;47.034;15.394;2023-09-30T01:34:05;35.13;;;1.80;;
1747;SDS011;871;47.034;15.394;2023-09-30T01:36:33;35.93;;;1.90;;
1747;SDS011;871;47.034;15.394;2023-09-30T01:38:59;35.77;;;1.80;;
1747;SDS011;871;47.034;15.394;2023-09-30T01:41:26;36.27;;;1.70;;
1747;SDS011;871;47.034;15.394;2023-09-30T01:43:52;36.60;;;2.07;;
1747;SDS011;871;47.034;15.394;2023-09-30T01:46:18;35.87;;;2.33;;
1747;SDS011;871;47.034;15.394;2023-09-30T01:48:44;36.60;;;2.00;;
1747;SDS011;871;47.034;15.394;2023-09-30T01:51:10;36.20;;;1.70;;
1747;SDS011;871;47.034;15.394;2023-09-30T01:53:36;36.40;;;1.63;;
1747;SDS011;871;47.034;15.394;2023-09-30T01:56:02;35.50;;;1.77;;
1747;SDS011;871;47.034;15.394;2023-09-30T01:58:28;35.20;;;1.77;;
1747;SDS011;871;47.034;15.394;2023-09-30T02:01:00;35.07;;;1.90;;
1747;SDS011;871;47.034;15.394;2023-09-30T02:03:27;35.77;;;1.70;;
1747;SDS011;871;47.034;15.394;2023-09-30T02:05:54;37.67;;;2.10;;
1747;SDS011;871;47.034;15.394;2023-09-30T02:08:20;36.83;;;1.60;;
1747;SDS011;871;47.034;15.394;2023-09-30T02:10:47;36.60;;;1.87;;
1747;SDS011;871;47.034;15.394;2023-09-30T02:13:16;36.80;;;1.70;;
1747;SDS011;871;47.034;15.394;2023-09-30T02:15:42;36.57;;;1.70;;
1747;SDS011;871;47.034;15.394;2023-09-30T02:18:08;36.83;;;1.80;;
1747;SDS011;871;47.034;15.394;2023-09-30T02:20:35;38.00;;;2.10;;
1747;SDS011;871;47.034;15.394;2023-09-30T02:23:04;37.87;;;1.80;;
1747;SDS011;871;47.034;15.394;2023-09-30T02:25:31;38.17;;;1.77;;
1747;SDS011;871;47.034;15.394;2023-09-30T02:27:58;37.90;;;1.80;;
1747;SDS011;871;47.034;15.394;2023-09-30T02:30:25;37.10;;;2.00;;
1747;SDS011;871;47.034;15.394;2023-09-30T02:32:52;36.70;;;1.70;;
1747;SDS011;871;47.034;15.394;2023-09-30T02:35:18;36.90;;;1.80;;
1747;SDS011;871;47.034;15.394;2023-09-30T02:37:46;36.57;;;1.90;;
1747;SDS011;871;47.034;15.394;2023-09-30T02:40:12;36.37;;;1.90;;
1747;SDS011;871;47.034;15.394;2023-09-30T02:42:40;36.20;;;1.80;;
1747;SDS011;871;47.034;15.394;2023-09-30T02:45:07;36.77;;;1.60;;
1747;SDS011;871;47.034;15.394;2023-09-30T02:47:33;37.07;;;2.30;;
1747;SDS011;871;47.034;15.394;2023-09-30T02:50:00;36.30;;;1.83;;
1747;SDS011;871;47.034;15.394;2023-09-30T02:52:27;36.13;;;1.60;;
1747;SDS011;871;47.034;15.394;2023-09-30T02:54:54;36.73;;;2.43;;
1747;SDS011;871;47.034;15.394;2023-09-30T02:57:22;35.90;;;1.70;;
1747;SDS011;871;47.034;15.394;2023-09-30T02:59:48;36.17;;;1.60;;
1747;SDS011;871;47.034;15.394;2023-09-30T03:02:14;36.13;;;1.67;;
1747;SDS011;871;47.034;15.394;2023-09-30T03:04:41;35.83;;;1.70;;
1747;SDS011;871;47.034;15.394;2023-09-30T03:07:08;36.23;;;1.63;;
1747;SDS011;871;47.034;15.394;2023-09-30T03:09:35;36.37;;;1.80;;
1747;SDS011;871;47.034;15.394;2023-09-30T03:12:02;36.40;;;2.10;;
1747;SDS011;871;47.034;15.394;2023-09-30T03:14:29;36.10;;;2.33;;
1747;SDS011;871;47.034;15.394;2023-09-30T03:16:56;36.30;;;1.93;;
1747;SDS011;871;47.034;15.394;2023-09-30T03:19:22;36.23;;;1.60;;
1747;SDS011;871;47.034;15.394;2023-09-30T03:21:49;36.20;;;1.60;;
1747;SDS011;871;47.034;15.394;2023-09-30T03:24:15;36.57;;;1.70;;
1747;SDS011;871;47.034;15.394;2023-09-30T03:26:41;37.07;;;1.90;;
1747;SDS011;871;47.034;15.394;2023-09-30T03:29:09;37.27;;;1.80;;
1747;SDS011;871;47.034;15.394;2023-09-30T03:31:35;36.67;;;1.70;;
1747;SDS011;871;47.034;15.394;2023-09-30T03:34:02;36.07;;;1.57;;
1747;SDS011;871;47.034;15.394;2023-09-30T03:36:30;36.20;;;1.93;;
1747;SDS011;871;47.034;15.394;2023-09-30T03:38:58;36.47;;;1.90;;
1747;SDS011;871;47.034;15.394;2023-09-30T03:41:30;36.57;;;1.87;;
1747;SDS011;871;47.034;15.394;2023-09-30T03:43:56;37.07;;;1.50;;
1747;SDS011;871;47.034;15.394;2023-09-30T03:46:22;36.77;;;1.63;;
1747;SDS011;871;47.034;15.394;2023-09-30T03:48:49;36.73;;;1.73;;
1747;SDS011;871;47.034;15.394;2023-09-30T03:51:15;36.40;;;1.80;;
1747;SDS011;871;47.034;15.394;2023-09-30T03:53:41;36.67;;;1.80;;
1747;SDS011;871;47.034;15.394;2023-09-30T03:56:07;36.30;;;1.67;;
1747;SDS011;871;47.034;15.394;2023-09-30T03:58:36;37.23;;;1.80;;
1747;SDS011;871;47.034;15.394;2023-09-30T04:01:03;37.13;;;1.50;;
1747;SDS011;871;47.034;15.394;2023-09-30T04:03:29;39.20;;;2.23;;
1747;SDS011;871;47.034;15.394;2023-09-30T04:05:58;36.63;;;1.70;;
1747;SDS011;871;47.034;15.394;2023-09-30T04:08:24;37.30;;;1.73;;
1747;SDS011;871;47.034;15.394;2023-09-30T04:10:50;37.07;;;2.00;;
1747;SDS011;871;47.034;15.394;2023-09-30T04:13:18;36.53;;;1.90;;
1747;SDS011;871;47.034;15.394;2023-09-30T04:15:45;36.67;;;1.57;;
1747;SDS011;871;47.034;15.394;2023-09-30T04:18:12;36.77;;;1.40;;
1747;SDS011;871;47.034;15.394;2023-09-30T04:20:38;36.97;;;1.80;;
1747;SDS011;871;47.034;15.394;2023-09-30T04:23:05;36.47;;;1.60;;
1747;SDS011;871;47.034;15.394;2023-09-30T04:25:31;36.77;;;1.90;;
1747;SDS011;871;47.034;15.394;2023-09-30T04:27:58;36.10;;;1.70;;
1747;SDS011;871;47.034;15.394;2023-09-30T04:30:24;36.30;;;1.80;;
1747;SDS011;871;47.034;15.394;2023-09-30T04:32:51;36.47;;;1.70;;
1747;SDS011;871;47.034;15.394;2023-09-30T04:35:17;36.57;;;2.00;;
1747;SDS011;871;47.034;15.394;2023-09-30T04:37:43;37.10;;;1.60;;
1747;SDS011;871;47.034;15.394;2023-09-30T04:40:10;38.17;;;1.70;;
1747;SDS011;871;47.034;15.394;2023-09-30T04:42:43;37.67;;;1.60;;
1747;SDS011;871;47.034;15.394;2023-09-30T04:45:12;38.00;;;1.70;;
1747;SDS011;871;47.034;15.394;2023-09-30T04:47:41;37.20;;;1.60;;
1747;SDS011;871;47.034;15.394;2023-09-30T04:50:09;38.67;;;1.97;;
1747;SDS011;871;47.034;15.394;2023-09-30T04:52:36;37.33;;;1.70;;
1747;SDS011;871;47.034;15.394;2023-09-30T04:55:04;38.00;;;1.70;;
1747;SDS011;871;47.034;15.394;2023-09-30T04:57:30;38.90;;;2.23;;
1747;SDS011;871;47.034;15.394;2023-09-30T04:59:59;37.87;;;1.40;;
1747;SDS011;871;47.034;15.394;2023-09-30T05:02:25;37.77;;;1.77;;
1747;SDS011;871;47.034;15.394;2023-09-30T05:04:51;37.83;;;1.60;;
1747;SDS011;871;47.034;15.394;2023-09-30T05:07:18;38.47;;;1.53;;
1747;SDS011;871;47.034;15.394;2023-09-30T05:09:45;37.77;;;1.60;;
1747;SDS011;871;47.034;15.394;2023-09-30T05:12:11;37.97;;;1.50;;
1747;SDS011;871;47.034;15.394;2023-09-30T05:14:37;37.97;;;1.60;;
1747;SDS011;871;47.034;15.394;2023-09-30T05:17:04;38.30;;;1.43;;
1747;SDS011;871;47.034;15.394;2023-09-30T05:19:30;38.23;;;1.83;;
1747;SDS011;871;47.034;15.394;2023-09-30T05:22:00;38.63;;;1.73;;
1747;SDS011;871;47.034;15.394;2023-09-30T05:24:27;38.27;;;1.50;;
1747;SDS011;871;47.034;15.394;2023-09-30T05:26:53;39.63;;;2.37;;
1747;SDS011;871;47.034;15.394;2023-09-30T05:29:19;38.47;;;1.70;;
1747;SDS011;871;47.034;15.394;2023-09-30T05:31:45;38.47;;;1.50;;
1747;SDS011;871;47.034;15.394;2023-09-30T05:34:12;38.57;;;1.83;;
1747;SDS011;871;47.034;15.394;2023-09-30T05:36:38;38.17;;;1.60;;
1747;SDS011;871;47.034;15.394;2023-09-30T05:39:04;39.00;;;1.70;;
1747;SDS011;871;47.034;15.394;2023-09-30T05:41:30;39.37;;;1.73;;
1747;SDS011;871;47.034;15.394;2023-09-30T05:43:56;39.30;;;1.90;;
1747;SDS011;871;47.034;15.394;2023-09-30T05:46:24;38.70;;;1.63;;
1747;SDS011;871;47.034;15.394;2023-09-30T05:48:50;39.20;;;1.80;;
1747;SDS011;871;47.034;15.394;2023-09-30T05:51:16;39.87;;;2.00;;
1747;SDS011;871;47.034;15.394;2023-09-30T05:53:43;39.40;;;1.53;;
1747;SDS011;871;47.034;15.394;2023-09-30T05:56:12;39.27;;;1.57;;
1747;SDS011;871;47.034;15.394;2023-09-30T05:58:40;39.90;;;1.73;;
1747;SDS011;871;47.034;15.394;2023-09-30T06:01:09;39.03;;;1.40;;
1747;SDS011;871;47.034;15.394;2023-09-30T06:03:36;39.33;;;1.60;;
1747;SDS011;871;47.034;15.394;2023-09-30T06:06:14;38.97;;;1.20;;
1747;SDS011;871;47.034;15.394;2023-09-30T06:08:41;38.90;;;2.10;;
1747;SDS011;871;47.034;15.394;2023-09-30T06:11:16;39.97;;;1.37;;
1747;SDS011;871;47.034;15.394;2023-09-30T06:13:44;39.47;;;1.53;;
1747;SDS011;871;47.034;15.394;2023-09-30T06:16:11;40.37;;;1.70;;
1747;SDS011;871;47.034;15.394;2023-09-30T06:18:37;39.87;;;1.83;;
1747;SDS011;871;47.034;15.394;2023-09-30T06:21:03;39.90;;;1.77;;
1747;SDS011;871;47.034;15.394;2023-09-30T06:23:30;39.47;;;1.63;;
1747;SDS011;871;47.034;15.394;2023-09-30T06:25:56;39.30;;;1.40;;
1747;SDS011;871;47.034;15.394;2023-09-30T06:28:22;39.77;;;1.80;;
1747;SDS011;871;47.034;15.394;2023-09-30T06:30:54;39.30;;;1.53;;
1747;SDS011;871;47.034;15.394;2023-09-30T06:33:22;39.00;;;1.40;;
1747;SDS011;871;47.034;15.394;2023-09-30T06:35:48;39.67;;;1.70;;
1747;SDS011;871;47.034;15.394;2023-09-30T06:38:20;39.87;;;1.60;;
1747;SDS011;871;47.034;15.394;2023-09-30T06:40:46;41.90;;;1.90;;
1747;SDS011;871;47.034;15.394;2023-09-30T06:43:13;42.60;;;2.57;;
1747;SDS011;871;47.034;15.394;2023-09-30T06:45:41;40.73;;;1.60;;
1747;SDS011;871;47.034;15.394;2023-09-30T06:48:07;40.63;;;1.47;;
1747;SDS011;871;47.034;15.394;2023-09-30T06:50:37;40.53;;;1.60;;
1747;SDS011;871;47.034;15.394;2023-09-30T06:53:03;40.77;;;1.53;;
1747;SDS011;871;47.034;15.394;2023-09-30T06:55:30;39.87;;;1.40;;
1747;SDS011;871;47.034;15.394;2023-09-30T06:57:56;40.07;;;1.57;;
1747;SDS011;871;47.034;15.394;2023-09-30T07:00:23;40.77;;;1.50;;
1747;SDS011;871;47.034;15.394;2023-09-30T07:02:50;40.07;;;1.90;;
1747;SDS011;871;47.034;15.394;2023-09-30T07:05:16;40.37;;;1.50;;
1747;SDS011;871;47.034;15.394;2023-09-30T07:07:42;42.00;;;2.60;;
1747;SDS011;871;47.034;15.394;2023-09-30T07:10:09;41.70;;;1.90;;
1747;SDS011;871;47.034;15.394;2023-09-30T07:12:36;40.77;;;1.80;;
1747;SDS011;871;47.034;15.394;2023-09-30T07:15:05;40.83;;;1.80;;
1747;SDS011;871;47.034;15.394;2023-09-30T07:17:31;41.60;;;2.40;;
1747;SDS011;871;47.034;15.394;2023-09-30T07:19:58;41.07;;;1.40;;
1747;SDS011;871;47.034;15.394;2023-09-30T07:22:24;41.10;;;1.80;;
1747;SDS011;871;47.034;15.394;2023-09-30T07:24:50;41.10;;;1.30;;
1747;SDS011;871;47.034;15.394;2023-09-30T07:27:17;41.80;;;1.90;;
1747;SDS011;871;47.034;15.394;2023-09-30T07:29:44;41.73;;;1.50;;
1747;SDS011;871;47.034;15.394;2023-09-30T07:32:10;42.13;;;2.27;;
1747;SDS011;871;47.034;15.394;2023-09-30T07:34:36;42.37;;;2.07;;
1747;SDS011;871;47.034;15.394;2023-09-30T07:37:02;43.20;;;1.80;;
1747;SDS011;871;47.034;15.394;2023-09-30T07:39:29;41.93;;;1.60;;
1747;SDS011;871;47.034;15.394;2023-09-30T07:41:55;42.07;;;1.60;;
1747;SDS011;871;47.034;15.394;2023-09-30T07:44:21;43.20;;;1.70;;
1747;SDS011;871;47.034;15.394;2023-09-30T07:46:47;42.33;;;1.87;;
1747;SDS011;871;47.034;15.394;2023-09-30T07:49:13;42.77;;;1.97;;
1747;SDS011;871;47.034;15.394;2023-09-30T07:51:40;43.80;;;2.10;;
1747;SDS011;871;47.034;15.394;2023-09-30T07:54:06;42.27;;;1.60;;
1747;SDS011;871;47.034;15.394;2023-09-30T07:56:32;46.00;;;2.77;;
1747;SDS011;871;47.034;15.394;2023-09-30T07:58:59;42.53;;;1.73;;
1747;SDS011;871;47.034;15.394;2023-09-30T08:01:25;43.30;;;2.20;;
1747;SDS011;871;47.034;15.394;2023-09-30T08:03:51;42.90;;;1.90;;
1747;SDS011;871;47.034;15.394;2023-09-30T08:06:17;42.57;;;1.70;;
1747;SDS011;871;47.034;15.394;2023-09-30T08:08:43;42.40;;;1.80;;
1747;SDS011;871;47.034;15.394;2023-09-30T08:11:09;43.07;;;1.70;;
1747;SDS011;871;47.034;15.394;2023-09-30T08:13:35;43.07;;;2.00;;
1747;SDS011;871;47.034;15.394;2023-09-30T08:16:01;43.07;;;2.10;;
1747;SDS011;871;47.034;15.394;2023-09-30T08:18:27;42.87;;;1.83;;
1747;SDS011;871;47.034;15.394;2023-09-30T08:20:53;43.20;;;1.90;;
1747;SDS011;871;47.034;15.394;2023-09-30T08:23:19;43.00;;;1.90;;
1747;SDS011;871;47.034;15.394;2023-09-30T08:25:46;42.53;;;1.73;;
1747;SDS011;871;47.034;15.394;2023-09-30T08:28:12;43.53;;;1.97;;
1747;SDS011;871;47.034;15.394;2023-09-30T08:30:38;51.17;;;2.10;;
1747;SDS011;871;47.034;15.394;2023-09-30T08:33:04;44.07;;;2.67;;
1747;SDS011;871;47.034;15.394;2023-09-30T08:35:34;43.27;;;2.50;;
1747;SDS011;871;47.034;15.394;2023-09-30T08:38:01;44.40;;;3.80;;
1747;SDS011;871;47.034;15.394;2023-09-30T08:40:27;42.63;;;1.60;;
1747;SDS011;871;47.034;15.394;2023-09-30T08:42:53;44.17;;;2.27;;
1747;SDS011;871;47.034;15.394;2023-09-30T08:45:20;42.63;;;2.10;;
1747;SDS011;871;47.034;15.394;2023-09-30T08:47:46;42.47;;;1.40;;
1747;SDS011;871;47.034;15.394;2023-09-30T08:50:12;42.50;;;1.57;;
1747;SDS011;871;47.034;15.394;2023-09-30T08:52:39;42.97;;;1.37;;
1747;SDS011;871;47.034;15.394;2023-09-30T08:55:06;43.80;;;2.13;;
1747;SDS011;871;47.034;15.394;2023-09-30T08:57:32;43.20;;;2.20;;
1747;SDS011;871;47.034;15.394;2023-09-30T08:59:59;43.00;;;2.50;;
1747;SDS011;871;47.034;15.394;2023-09-30T09:02:25;43.07;;;2.40;;
1747;SDS011;871;47.034;15.394;2023-09-30T09:04:51;42.70;;;1.37;;
1747;SDS011;871;47.034;15.394;2023-09-30T09:07:17;42.67;;;1.70;;
1747;SDS011;871;47.034;15.394;2023-09-30T09:10:02;43.17;;;2.10;;
1747;SDS011;871;47.034;15.394;2023-09-30T09:12:28;43.60;;;2.30;;
1747;SDS011;871;47.034;15.394;2023-09-30T09:14:54;43.00;;;2.27;;
1747;SDS011;871;47.034;15.394;2023-09-30T09:17:20;43.60;;;2.10;;
1747;SDS011;871;47.034;15.394;2023-09-30T09:20:00;42.80;;;1.80;;
1747;SDS011;871;47.034;15.394;2023-09-30T09:22:37;43.90;;;2.10;;
1747;SDS011;871;47.034;15.394;2023-09-30T09:25:04;43.90;;;2.33;;
1747;SDS011;871;47.034;15.394;2023-09-30T09:27:30;44.17;;;2.07;;
1747;SDS011;871;47.034;15.394;2023-09-30T09:30:33;43.53;;;1.70;;
1747;SDS011;871;47.034;15.394;2023-09-30T09:32:58;43.10;;;1.93;;
1747;SDS011;871;47.034;15.394;2023-09-30T09:35:25;43.57;;;1.97;;
1747;SDS011;871;47.034;15.394;2023-09-30T09:37:57;44.10;;;2.10;;
1747;SDS011;871;47.034;15.394;2023-09-30T09:40:24;43.27;;;1.50;;
1747;SDS011;871;47.034;15.394;2023-09-30T09:42:50;43.27;;;2.07;;
1747;SDS011;871;47.034;15.394;2023-09-30T09:45:19;44.07;;;2.10;;
1747;SDS011;871;47.034;15.394;2023-09-30T09:47:47;43.30;;;1.53;;
1747;SDS011;871;47.034;15.394;2023-09-30T09:50:14;46.47;;;2.23;;
1747;SDS011;871;47.034;15.394;2023-09-30T09:52:41;43.20;;;1.90;;
1747;SDS011;871;47.034;15.394;2023-09-30T09:55:10;43.63;;;1.80;;
1747;SDS011;871;47.034;15.394;2023-09-30T09:57:36;43.80;;;2.60;;
1747;SDS011;871;47.034;15.394;2023-09-30T10:00:03;43.30;;;1.67;;
1747;SDS011;871;47.034;15.394;2023-09-30T10:02:36;44.37;;;2.23;;
1747;SDS011;871;47.034;15.394;2023-09-30T10:05:05;43.77;;;1.87;;
1747;SDS011;871;47.034;15.394;2023-09-30T10:07:33;43.37;;;1.80;;
1747;SDS011;871;47.034;15.394;2023-09-30T10:10:01;46.13;;;2.23;;
1747;SDS011;871;47.034;15.394;2023-09-30T10:12:35;43.87;;;2.07;;
1747;SDS011;871;47.034;15.394;2023-09-30T10:15:16;44.00;;;1.80;;
1747;SDS011;871;47.034;15.394;2023-09-30T10:18:09;43.90;;;2.07;;
1747;SDS011;871;47.034;15.394;2023-09-30T10:20:39;43.57;;;1.60;;
1747;SDS011;871;47.034;15.394;2023-09-30T10:28:39;43.53;;;1.70;;
1747;SDS011;871;47.034;15.394;2023-09-30T10:31:17;44.17;;;2.70;;
1747;SDS011;871;47.034;15.394;2023-09-30T10:36:28;44.20;;;2.20;;
1747;SDS011;871;47.034;15.394;2023-09-30T10:38:55;43.10;;;1.60;;
1747;SDS011;871;47.034;15.394;2023-09-30T10:47:00;43.53;;;1.97;;
1747;SDS011;871;47.034;15.394;2023-09-30T10:51:53;48.47;;;2.00;;
1747;SDS011;871;47.034;15.394;2023-09-30T10:54:27;43.30;;;2.00;;
1747;SDS011;871;47.034;15.394;2023-09-30T10:56:53;44.30;;;2.43;;
1747;SDS011;871;47.034;15.394;2023-09-30T10:59:19;43.00;;;2.00;;
1747;SDS011;871;47.034;15.394;2023-09-30T11:01:45;44.93;;;2.27;;
1747;SDS011;871;47.034;15.394;2023-09-30T11:04:11;49.20;;;2.63;;
1747;SDS011;871;47.034;15.394;2023-09-30T11:06:41;44.77;;;2.00;;
1747;SDS011;871;47.034;15.394;2023-09-30T11:09:07;45.13;;;2.13;;
1747;SDS011;871;47.034;15.394;2023-09-30T11:11:42;44.93;;;2.13;;
1747;SDS011;871;47.034;15.394;2023-09-30T11:14:19;43.43;;;1.80;;
1747;SDS011;871;47.034;15.394;2023-09-30T11:16:45;43.37;;;1.80;;
1747;SDS011;871;47.034;15.394;2023-09-30T11:19:12;44.47;;;2.40;;
1747;SDS011;871;47.034;15.394;2023-09-30T11:21:41;45.20;;;2.97;;
1747;SDS011;871;47.034;15.394;2023-09-30T11:24:08;44.20;;;2.33;;
1747;SDS011;871;47.034;15.394;2023-09-30T11:26:35;44.17;;;2.70;;
1747;SDS011;871;47.034;15.394;2023-09-30T11:29:09;44.20;;;2.27;;
1747;SDS011;871;47.034;15.394;2023-09-30T11:31:37;44.87;;;2.37;;
1747;SDS011;871;47.034;15.394;2023-09-30T11:34:03;43.17;;;1.83;;
1747;SDS011;871;47.034;15.394;2023-09-30T11:36:33;45.00;;;3.00;;
1747;SDS011;871;47.034;15.394;2023-09-30T11:38:59;44.87;;;2.70;;
1747;SDS011;871;47.034;15.394;2023-09-30T11:41:34;43.77;;;2.03;;
1747;SDS011;871;47.034;15.394;2023-09-30T11:44:06;44.20;;;2.27;;
1747;SDS011;871;47.034;15.394;2023-09-30T11:46:46;43.87;;;2.03;;
1747;SDS011;871;47.034;15.394;2023-09-30T11:49:23;43.67;;;2.23;;
1747;SDS011;871;47.034;15.394;2023-09-30T11:51:49;43.30;;;2.00;;
1747;SDS011;871;47.034;15.394;2023-09-30T11:54:16;48.27;;;2.70;;
1747;SDS011;871;47.034;15.394;2023-09-30T11:56:42;43.70;;;2.10;;
1747;SDS011;871;47.034;15.394;2023-09-30T11:59:08;43.77;;;2.60;;
1747;SDS011;871;47.034;15.394;2023-09-30T12:01:36;43.60;;;2.17;;
1747;SDS011;871;47.034;15.394;2023-09-30T12:04:02;44.20;;;2.07;;
1747;SDS011;871;47.034;15.394;2023-09-30T12:06:28;44.20;;;2.30;;
1747;SDS011;871;47.034;15.394;2023-09-30T12:08:55;46.17;;;3.30;;
1747;SDS011;871;47.034;15.394;2023-09-30T12:11:21;43.47;;;1.70;;
1747;SDS011;871;47.034;15.394;2023-09-30T12:13:49;46.60;;;3.03;;
1747;SDS011;871;47.034;15.394;2023-09-30T12:16:15;43.13;;;1.60;;
1747;SDS011;871;47.034;15.394;2023-09-30T12:18:41;43.63;;;2.30;;
1747;SDS011;871;47.034;15.394;2023-09-30T12:21:09;44.07;;;2.00;;
1747;SDS011;871;47.034;15.394;2023-09-30T12:23:35;46.30;;;2.90;;
1747;SDS011;871;47.034;15.394;2023-09-30T12:26:02;43.37;;;1.83;;
1747;SDS011;871;47.034;15.394;2023-09-30T12:28:30;43.77;;;2.00;;
1747;SDS011;871;47.034;15.394;2023-09-30T12:30:57;49.13;;;3.23;;
1747;SDS011;871;47.034;15.394;2023-09-30T12:33:23;45.23;;;2.67;;
1747;SDS011;871;47.034;15.394;2023-09-30T12:35:49;43.37;;;2.17;;
1747;SDS011;871;47.034;15.394;2023-09-30T12:38:16;45.70;;;2.67;;
1747;SDS011;871;47.034;15.394;2023-09-30T12:40:42;44.03;;;1.97;;
1747;SDS011;871;47.034;15.394;2023-09-30T12:43:08;43.63;;;1.70;;
1747;SDS011;871;47.034;15.394;2023-09-30T12:45:35;43.63;;;2.37;;
1747;SDS011;871;47.034;15.394;2023-09-30T12:48:03;43.57;;;2.37;;
1747;SDS011;871;47.034;15.394;2023-09-30T12:50:30;45.07;;;2.00;;
1747;SDS011;871;47.034;15.394;2023-09-30T12:52:56;43.30;;;2.10;;
1747;SDS011;871;47.034;15.394;2023-09-30T12:55:22;43.77;;;1.93;;
1747;SDS011;871;47.034;15.394;2023-09-30T12:57:48;45.13;;;1.93;;
1747;SDS011;871;47.034;15.394;2023-09-30T13:00:15;43.80;;;2.30;;
1747;SDS011;871;47.034;15.394;2023-09-30T13:02:41;44.00;;;2.30;;
1747;SDS011;871;47.034;15.394;2023-09-30T13:05:08;49.63;;;3.03;;
1747;SDS011;871;47.034;15.394;2023-09-30T13:07:34;44.00;;;2.20;;
1747;SDS011;871;47.034;15.394;2023-09-30T13:10:00;43.77;;;1.80;;
1747;SDS011;871;47.034;15.394;2023-09-30T13:12:26;44.30;;;2.00;;
1747;SDS011;871;47.034;15.394;2023-09-30T13:14:52;43.90;;;2.23;;
1747;SDS011;871;47.034;15.394;2023-09-30T13:17:21;44.37;;;2.63;;
1747;SDS011;871;47.034;15.394;2023-09-30T13:19:47;43.40;;;1.70;;
1747;SDS011;871;47.034;15.394;2023-09-30T13:22:13;44.77;;;2.10;;
1747;SDS011;871;47.034;15.394;2023-09-30T13:24:41;44.00;;;2.73;;
1747;SDS011;871;47.034;15.394;2023-09-30T13:27:07;44.07;;;1.90;;
1747;SDS011;871;47.034;15.394;2023-09-30T13:29:33;46.07;;;3.10;;
1747;SDS011;871;47.034;15.394;2023-09-30T13:32:00;45.10;;;2.67;;
1747;SDS011;871;47.034;15.394;2023-09-30T13:34:26;43.57;;;1.80;;
1747;SDS011;871;47.034;15.394;2023-09-30T13:36:52;44.50;;;2.30;;
1747;SDS011;871;47.034;15.394;2023-09-30T13:39:18;46.00;;;2.40;;
1747;SDS011;871;47.034;15.394;2023-09-30T13:41:44;44.97;;;2.37;;
1747;SDS011;871;47.034;15.394;2023-09-30T13:44:12;44.30;;;2.13;;
1747;SDS011;871;47.034;15.394;2023-09-30T13:46:38;43.77;;;1.63;;
1747;SDS011;871;47.034;15.394;2023-09-30T13:49:04;44.67;;;2.00;;
1747;SDS011;871;47.034;15.394;2023-09-30T13:51:30;44.47;;;2.17;;
1747;SDS011;871;47.034;15.394;2023-09-30T13:53:56;43.43;;;1.77;;
1747;SDS011;871;47.034;15.394;2023-09-30T13:56:22;44.97;;;2.63;;
1747;SDS011;871;47.034;15.394;2023-09-30T13:58:48;43.70;;;2.33;;
1747;SDS011;871;47.034;15.394;2023-09-30T14:01:14;43.50;;;1.57;;
1747;SDS011;871;47.034;15.394;2023-09-30T14:03:40;43.47;;;1.80;;
1747;SDS011;871;47.034;15.394;2023-09-30T14:06:10;43.27;;;1.97;;
1747;SDS011;871;47.034;15.394;2023-09-30T14:08:39;43.63;;;2.00;;
1747;SDS011;871;47.034;15.394;2023-09-30T14:11:07;43.30;;;1.70;;
1747;SDS011;871;47.034;15.394;2023-09-30T14:13:33;44.33;;;2.70;;
1747;SDS011;871;47.034;15.394;2023-09-30T14:16:00;43.80;;;2.60;;
1747;SDS011;871;47.034;15.394;2023-09-30T14:18:26;44.10;;;2.07;;
1747;SDS011;871;47.034;15.394;2023-09-30T14:20:52;44.70;;;2.10;;
1747;SDS011;871;47.034;15.394;2023-09-30T14:23:18;43.27;;;2.03;;
1747;SDS011;871;47.034;15.394;2023-09-30T14:25:44;45.93;;;2.50;;
1747;SDS011;871;47.034;15.394;2023-09-30T14:28:10;44.40;;;2.50;;
1747;SDS011;871;47.034;15.394;2023-09-30T14:30:36;43.87;;;2.10;;
1747;SDS011;871;47.034;15.394;2023-09-30T14:33:03;43.87;;;1.90;;
1747;SDS011;871;47.034;15.394;2023-09-30T14:35:29;43.17;;;1.50;;
1747;SDS011;871;47.034;15.394;2023-09-30T14:37:55;45.10;;;2.30;;
1747;SDS011;871;47.034;15.394;2023-09-30T14:40:21;44.17;;;2.23;;
1747;SDS011;871;47.034;15.394;2023-09-30T14:42:47;44.47;;;2.33;;
1747;SDS011;871;47.034;15.394;2023-09-30T14:45:14;43.53;;;2.10;;
1747;SDS011;871;47.034;15.394;2023-09-30T14:47:40;43.67;;;2.20;;
1747;SDS011;871;47.034;15.394;2023-09-30T14:50:07;43.53;;;2.00;;
1747;SDS011;871;47.034;15.394;2023-09-30T14:52:33;43.30;;;1.80;;
1747;SDS011;871;47.034;15.394;2023-09-30T14:54:59;44.93;;;2.60;;
1747;SDS011;871;47.034;15.394;2023-09-30T14:57:25;43.10;;;1.63;;
1747;SDS011;871;47.034;15.394;2023-09-30T14:59:51;44.90;;;3.33;;
1747;SDS011;871;47.034;15.394;2023-09-30T15:02:17;43.30;;;1.97;;
1747;SDS011;871;47.034;15.394;2023-09-30T15:04:43;44.40;;;2.87;;
1747;SDS011;871;47.034;15.394;2023-09-30T15:07:09;43.17;;;1.67;;
1747;SDS011;871;47.034;15.394;2023-09-30T15:09:37;43.27;;;1.93;;
1747;SDS011;871;47.034;15.394;2023-09-30T15:12:03;43.57;;;2.17;;
1747;SDS011;871;47.034;15.394;2023-09-30T15:14:30;43.67;;;2.20;;
1747;SDS011;871;47.034;15.394;2023-09-30T15:16:56;43.57;;;1.97;;